EDT,Max TemperatureF,Mean TemperatureF,Min TemperatureF,Max Dew PointF,MeanDew PointF,Min DewpointF,Max Humidity, Mean Humidity, Min Humidity, Max Sea Level PressureIn, Mean Sea Level PressureIn, Min Sea Level PressureIn, Max VisibilityMiles, Mean VisibilityMiles, Min VisibilityMiles, Max Wind SpeedMPH, Mean Wind SpeedMPH, Max Gust SpeedMPH,PrecipitationIn, CloudCover, Events, WindDirDegrees
2013-7-1,76,73,69,73,70,68,100,94,87,30.11,30.04,29.96,10,8,1,16,8,21,0.33,8,Rain,202
2013-7-2,79,73,67,70,70,69,93,84,74,30.21,30.16,30.09,10,10,9,16,10,21,T,7,Rain,205
2013-7-3,84,75,65,71,68,63,97,80,63,30.24,30.21,30.18,10,9,6,21,12,25,T,4,,231
2013-7-4,87,79,71,72,71,70,100,78,55,30.26,30.20,30.14,10,10,5,21,12,27,0.00,2,,245
2013-7-5,89,81,72,72,70,68,93,73,53,30.20,30.14,30.08,10,10,10,18,12,24,0.00,0,,245
2013-7-6,87,80,73,72,69,65,87,71,55,30.11,30.08,30.02,10,10,10,17,11,24,0.00,1,,273
2013-7-7,88,80,71,75,68,63,94,75,55,30.06,30.01,29.95,10,10,9,13,8,16,0.02,1,Rain,260
2013-7-8,85,76,67,72,68,65,100,76,51,30.09,30.01,29.94,10,10,8,15,10,20,0.01,4,Rain,301
2013-7-9,74,69,64,68,66,64,100,92,84,30.12,30.09,30.06,10,5,0,8,5,10,0.00,8,Fog,66
2013-7-10,82,74,65,74,70,65,100,87,74,30.09,29.94,29.83,10,5,0,18,9,24,0.12,7,Fog-Rain,169
2013-7-11,79,74,69,71,69,62,100,84,67,29.96,29.86,29.81,10,6,1,13,8,17,0.20,4,Rain,252
2013-7-12,74,70,65,61,58,53,76,67,57,30.21,30.11,29.96,10,10,10,16,10,24,T,3,,52
2013-7-13,72,67,61,70,65,55,100,87,73,30.34,30.31,30.22,10,5,0,10,5,13,0.09,8,Fog-Rain,76
2013-7-14,86,78,70,71,70,68,100,80,59,30.34,30.30,30.24,10,8,0,15,7,19,0.00,5,Fog,276
2013-7-15,88,80,71,70,68,64,93,70,46,30.24,30.19,30.14,10,10,10,13,8,16,0.00,1,,305
2013-7-16,90,81,72,67,64,62,74,58,41,30.19,30.17,30.15,10,10,10,15,7,20,0.00,1,,349
2013-7-17,90,81,72,73,67,63,87,64,41,30.21,30.14,30.05,10,10,10,15,7,20,0.00,0,,267
2013-7-18,91,83,74,71,69,66,87,66,44,30.05,30.01,29.98,10,10,10,16,8,21,0.00,0,,266
2013-7-19,93,84,74,76,72,68,93,70,47,29.97,29.87,29.77,10,9,6,22,13,31,0.00,0,,240
2013-7-20,88,79,69,73,70,61,94,75,55,29.84,29.76,29.71,10,8,1,22,11,26,0.15,1,Rain,257
2013-7-21,83,75,67,66,61,58,84,65,45,30.01,29.94,29.86,10,10,10,13,5,15,0.00,4,,290
2013-7-22,82,74,65,67,66,64,100,78,55,30.04,29.98,29.90,10,9,0,12,5,16,T,5,Rain,85
2013-7-23,82,75,67,73,69,66,100,97,93,29.89,29.69,29.58,10,4,0,20,7,26,1.37,7,Fog-Rain,176
2013-7-24,79,71,62,70,63,53,100,75,50,29.97,29.74,29.61,10,10,10,18,10,23,0.00,4,,296
2013-7-25,62,59,55,57,53,46,93,80,67,30.12,30.08,29.98,10,9,2,13,8,19,0.19,8,Rain,34
2013-7-26,70,64,58,62,59,57,100,87,73,30.07,30.02,29.99,10,9,4,18,12,24,0.49,7,Rain,352
2013-7-27,79,69,59,63,61,57,100,76,52,30.09,30.06,30.02,10,7,0,13,9,16,0.00,2,Fog,233
2013-7-28,80,71,61,68,63,60,100,79,58,30.05,30.02,29.99,10,8,0,10,4,12,T,5,Fog,247
2013-7-29,81,73,64,67,64,58,100,76,52,30.07,30.03,29.99,10,8,0,16,8,20,0.00,5,Fog,220
2013-7-30,78,69,60,57,55,52,78,60,42,30.13,30.10,30.07,10,10,10,18,11,24,0.00,1,,290
2013-7-31,78,69,59,61,56,47,87,62,36,30.16,30.11,30.07,10,10,10,12,5,15,0.00,1,,267